Time;durP1;ratioP1;P1;durP2;ratioP2;P2;SDS_P1;SDS_P2;PMS_P1;PMS_P2;Temp;Humidity;BMP_temperature;BMP_pressure;BME280_temperature;BME280_humidity;BME280_pressure;Samples;Min_cycle;Max_cycle;Signal;HPM_P1;HPM_P2
2022/08/19 00:01:53;;;;;;;;;;;28.10;54.40;;;;;;5090323;28;19927;-63
2022/08/19 00:04:19;;;;;;;;;;;28.00;54.30;;;;;;5091198;28;19912;-63
2022/08/19 00:06:47;;;;;;;;;;;28.00;54.50;;;;;;5102524;28;19962;-63
2022/08/19 00:09:13;;;;;;;;;;;27.90;54.60;;;;;;5094549;28;19916;-64
2022/08/19 00:11:39;;;;;;;;;;;27.90;54.70;;;;;;5094946;28;19917;-63
2022/08/19 00:14:05;;;;;;;;;;;27.90;54.80;;;;;;5100133;28;19924;-63
2022/08/19 00:16:31;;;;;;;;;;;27.90;54.80;;;;;;5074064;28;20031;-64
2022/08/19 00:18:56;;;;;;;;;;;27.80;54.80;;;;;;5090527;28;19952;-64
2022/08/19 00:21:26;;;;;;;;;;;27.80;55.00;;;;;;5093493;28;19908;-63
2022/08/19 00:23:52;;;;;;;;;;;27.80;55.00;;;;;;5071982;28;20384;-63
2022/08/19 00:26:17;;;;;;;;;;;27.90;54.90;;;;;;5092355;28;19908;-63
2022/08/19 00:28:43;;;;;;;;;;;27.90;54.80;;;;;;5074151;28;19940;-63
2022/08/19 00:31:08;;;;;;;;;;;27.90;54.80;;;;;;5093380;28;20323;-63
2022/08/19 00:33:34;;;;;;;;;;;27.90;54.90;;;;;;5091465;28;19950;-63
2022/08/19 00:36:00;;;;;;;;;;;27.90;54.90;;;;;;5088268;28;20306;-63
2022/08/19 00:38:25;;;;;;;;;;;27.90;54.90;;;;;;5091173;28;19912;-63
2022/08/19 00:40:51;;;;;;;;;;;28.00;55.00;;;;;;5093148;28;20344;-64
2022/08/19 00:43:20;;;;;;;;;;;27.90;54.80;;;;;;5090585;28;19924;-63
2022/08/19 00:45:47;;;;;;;;;;;27.90;54.80;;;;;;5093242;28;20360;-63
2022/08/19 00:48:12;;;;;;;;;;;27.90;55.00;;;;;;5085121;28;19969;-63
2022/08/19 00:50:40;;;;;;;;;;;28.00;55.00;;;;;;5091144;28;19912;-63
2022/08/19 00:53:05;;;;;;;;;;;28.00;55.10;;;;;;5073848;28;19951;-63
2022/08/19 00:55:31;;;;;;;;;;;27.90;55.00;;;;;;5073685;28;20002;-63
2022/08/19 00:58:00;;;;;;;;;;;27.90;55.10;;;;;;5091335;28;19912;-63
2022/08/19 01:00:25;;;;;;;;;;;27.90;55.40;;;;;;5087207;28;20321;-63
2022/08/19 01:02:51;;;;;;;;;;;27.80;55.70;;;;;;5056678;28;19955;-64
2022/08/19 01:05:21;;;;;;;;;;;27.70;55.70;;;;;;5067802;28;19913;-64
2022/08/19 01:07:47;;;;;;;;;;;27.70;55.60;;;;;;5087837;28;19919;-64
2022/08/19 01:10:13;;;;;;;;;;;27.70;55.80;;;;;;5091337;28;19912;-64
2022/08/19 01:12:38;;;;;;;;;;;27.70;55.80;;;;;;5074160;28;19916;-63
2022/08/19 01:15:05;;;;;;;;;;;27.70;55.70;;;;;;5110748;28;19916;-63
2022/08/19 01:17:30;;;;;;;;;;;27.80;55.70;;;;;;5079289;28;19987;-63
2022/08/19 01:19:56;;;;;;;;;;;27.80;55.70;;;;;;5106769;28;19936;-63
2022/08/19 01:22:30;;;;;;;;;;;27.80;55.60;;;;;;5100553;28;19920;-64
2022/08/19 01:24:55;;;;;;;;;;;27.80;55.40;;;;;;5089750;28;19916;-64
2022/08/19 01:27:21;;;;;;;;;;;27.80;55.40;;;;;;5076753;28;19911;-63
2022/08/19 01:29:46;;;;;;;;;;;27.90;55.60;;;;;;5093597;28;19912;-63
2022/08/19 01:32:12;;;;;;;;;;;27.90;55.40;;;;;;5090784;28;19923;-64
2022/08/19 01:34:38;;;;;;;;;;;27.80;55.50;;;;;;5106321;28;19918;-63
2022/08/19 01:37:07;;;;;;;;;;;27.80;55.40;;;;;;5105656;28;19912;-63
2022/08/19 01:39:33;;;;;;;;;;;27.90;55.40;;;;;;5106884;28;19912;-64
2022/08/19 01:41:58;;;;;;;;;;;27.90;55.40;;;;;;5112041;28;19912;-63
2022/08/19 01:44:24;;;;;;;;;;;27.90;55.50;;;;;;5111068;28;19908;-63
2022/08/19 01:46:49;;;;;;;;;;;27.90;55.50;;;;;;5110937;28;19977;-63
2022/08/19 01:49:15;;;;;;;;;;;27.80;55.70;;;;;;5109338;28;19994;-63
2022/08/19 01:51:41;;;;;;;;;;;27.70;55.60;;;;;;5107814;28;19998;-64
2022/08/19 01:54:07;;;;;;;;;;;27.70;55.60;;;;;;5100208;28;20342;-63
2022/08/19 01:56:33;;;;;;;;;;;27.70;55.60;;;;;;5093357;28;20290;-63
2022/08/19 01:59:02;;;;;;;;;;;27.70;55.70;;;;;;5104464;28;19912;-63
2022/08/19 02:01:30;;;;;;;;;;;27.80;55.60;;;;;;5093161;28;19922;-63
2022/08/19 02:03:56;;;;;;;;;;;27.80;55.60;;;;;;5110721;28;20387;-63
2022/08/19 02:06:21;;;;;;;;;;;27.80;55.40;;;;;;5108878;28;19916;-63
2022/08/19 02:08:47;;;;;;;;;;;27.80;55.70;;;;;;5106836;28;19943;-63
2022/08/19 02:11:20;;;;;;;;;;;27.80;55.70;;;;;;5100711;28;19919;-63
2022/08/19 02:13:45;;;;;;;;;;;27.80;55.70;;;;;;5099370;28;19924;-63
2022/08/19 02:16:11;;;;;;;;;;;27.80;55.70;;;;;;5091500;28;19916;-63
2022/08/19 02:18:36;;;;;;;;;;;27.70;55.80;;;;;;5089929;28;19959;-64
2022/08/19 02:21:02;;;;;;;;;;;27.70;55.90;;;;;;5091966;28;19920;-63
2022/08/19 02:23:27;;;;;;;;;;;27.70;56.10;;;;;;5094289;28;19924;-64
2022/08/19 02:25:53;;;;;;;;;;;27.60;56.20;;;;;;5087144;28;19999;-63
2022/08/19 02:28:18;;;;;;;;;;;27.60;56.30;;;;;;5088806;28;19912;-63
2022/08/19 02:30:44;;;;;;;;;;;27.60;56.50;;;;;;5094113;28;19923;-63
2022/08/19 02:33:09;;;;;;;;;;;27.50;57.10;;;;;;5095103;28;19923;-63
2022/08/19 02:35:34;;;;;;;;;;;27.60;57.00;;;;;;5092906;28;20300;-63
2022/08/19 02:40:49;;;;;;;;;;;27.50;56.50;;;;;;5081281;28;19997;-63
2022/08/19 02:43:15;;;;;;;;;;;27.60;56.50;;;;;;5093045;28;19924;-63
2022/08/19 02:45:40;;;;;;;;;;;27.50;56.60;;;;;;5073617;28;20396;-63
2022/08/19 02:48:06;;;;;;;;;;;27.60;56.50;;;;;;5091724;28;19999;-63
2022/08/19 02:50:31;;;;;;;;;;;27.60;56.60;;;;;;5095308;28;19923;-63
2022/08/19 02:52:57;;;;;;;;;;;27.50;56.70;;;;;;5076557;28;20338;-63
2022/08/19 02:55:22;;;;;;;;;;;27.60;56.90;;;;;;5093055;28;20359;-63
2022/08/19 02:57:48;;;;;;;;;;;27.60;56.60;;;;;;5060334;28;20560;-63
2022/08/19 03:00:13;;;;;;;;;;;27.60;56.90;;;;;;5090996;28;20287;-63
2022/08/19 03:02:39;;;;;;;;;;;27.50;56.90;;;;;;5083925;28;19943;-63
2022/08/19 03:05:05;;;;;;;;;;;27.50;56.90;;;;;;5076116;28;20011;-63
2022/08/19 03:07:31;;;;;;;;;;;27.50;56.80;;;;;;5093807;28;19977;-63
2022/08/19 03:09:56;;;;;;;;;;;27.50;56.60;;;;;;5072464;28;19912;-63
2022/08/19 03:12:21;;;;;;;;;;;27.60;57.00;;;;;;5094445;28;19969;-63
2022/08/19 03:14:47;;;;;;;;;;;27.50;56.80;;;;;;5112340;28;20299;-63
2022/08/19 03:17:12;;;;;;;;;;;27.50;56.80;;;;;;5109611;28;20302;-64
2022/08/19 03:19:38;;;;;;;;;;;27.60;57.00;;;;;;5090800;28;19956;-63
2022/08/19 03:22:04;;;;;;;;;;;27.50;57.00;;;;;;5106915;28;19965;-63
2022/08/19 03:24:30;;;;;;;;;;;27.50;57.10;;;;;;5112330;28;19912;-63
2022/08/19 03:26:57;;;;;;;;;;;27.50;57.00;;;;;;5112265;28;19919;-63
2022/08/19 03:29:22;;;;;;;;;;;27.60;57.00;;;;;;5095143;28;19912;-63
2022/08/19 03:31:47;;;;;;;;;;;27.50;56.70;;;;;;5094280;28;19912;-63
2022/08/19 03:34:14;;;;;;;;;;;27.60;57.00;;;;;;5108652;28;19915;-63
2022/08/19 03:36:40;;;;;;;;;;;27.60;56.90;;;;;;5109996;28;19916;-64
2022/08/19 03:39:08;;;;;;;;;;;27.60;56.90;;;;;;5112064;28;19911;-63
2022/08/19 03:41:36;;;;;;;;;;;27.60;57.10;;;;;;5113454;28;19912;-63
2022/08/19 03:44:02;;;;;;;;;;;27.50;57.20;;;;;;5110572;28;19924;-63
2022/08/19 03:46:28;;;;;;;;;;;27.50;57.30;;;;;;5112861;28;20268;-63
2022/08/19 03:48:55;;;;;;;;;;;27.40;57.20;;;;;;5106317;28;19924;-63
2022/08/19 03:51:21;;;;;;;;;;;27.40;57.50;;;;;;5111892;28;20363;-63
2022/08/19 03:53:47;;;;;;;;;;;27.40;57.70;;;;;;5092898;28;20018;-64
2022/08/19 03:56:13;;;;;;;;;;;27.30;57.70;;;;;;5113440;28;20443;-64
2022/08/19 03:58:38;;;;;;;;;;;27.30;57.90;;;;;;5111025;28;19969;-63
2022/08/19 04:01:06;;;;;;;;;;;27.30;57.90;;;;;;5112498;28;19918;-63
2022/08/19 04:03:32;;;;;;;;;;;27.30;57.90;;;;;;5111422;28;19919;-63
2022/08/19 04:05:57;;;;;;;;;;;27.30;57.90;;;;;;5106776;28;20043;-64
2022/08/19 04:08:23;;;;;;;;;;;27.20;57.90;;;;;;5108048;28;19914;-63
2022/08/19 04:10:48;;;;;;;;;;;27.20;57.90;;;;;;5101734;28;19919;-64
2022/08/19 04:13:14;;;;;;;;;;;27.20;58.20;;;;;;5044083;28;1729925;-63
2022/08/19 04:15:41;;;;;;;;;;;27.20;58.10;;;;;;5110882;28;20018;-63
2022/08/19 04:18:07;;;;;;;;;;;27.20;58.20;;;;;;5095271;28;19912;-63
2022/08/19 04:20:37;;;;;;;;;;;27.20;58.30;;;;;;5111502;28;20048;-63
2022/08/19 04:23:03;;;;;;;;;;;27.20;58.10;;;;;;5109116;28;20048;-63
2022/08/19 04:25:28;;;;;;;;;;;27.20;58.00;;;;;;5103884;28;19928;-63
2022/08/19 04:27:54;;;;;;;;;;;27.20;58.20;;;;;;5112344;28;19915;-63
2022/08/19 04:30:20;;;;;;;;;;;27.10;58.30;;;;;;5111954;28;19922;-63
2022/08/19 04:32:45;;;;;;;;;;;27.10;58.80;;;;;;5111215;28;19919;-63
2022/08/19 04:35:11;;;;;;;;;;;27.20;58.20;;;;;;5113398;28;20290;-63
2022/08/19 04:37:36;;;;;;;;;;;27.20;58.10;;;;;;5112645;28;19912;-63
2022/08/19 04:42:47;;;;;;;;;;;27.10;58.20;;;;;;5108195;28;19922;-63
2022/08/19 04:45:13;;;;;;;;;;;27.20;58.20;;;;;;5110522;28;20011;-63
2022/08/19 04:47:39;;;;;;;;;;;27.20;58.20;;;;;;5109168;28;20027;-63
2022/08/19 04:50:05;;;;;;;;;;;27.20;58.30;;;;;;5112958;28;19918;-63
2022/08/19 04:52:31;;;;;;;;;;;27.20;58.10;;;;;;5112995;28;20002;-64
2022/08/19 04:54:56;;;;;;;;;;;27.20;58.20;;;;;;5112558;28;19957;-63
2022/08/19 04:57:22;;;;;;;;;;;27.20;58.20;;;;;;5109512;28;19915;-63
2022/08/19 04:59:47;;;;;;;;;;;27.20;58.10;;;;;;5112510;28;19998;-63
2022/08/19 05:02:13;;;;;;;;;;;27.20;58.20;;;;;;5111619;28;20363;-63
2022/08/19 05:04:39;;;;;;;;;;;27.20;58.30;;;;;;5092951;28;21647;-63
2022/08/19 05:07:05;;;;;;;;;;;27.10;58.60;;;;;;5111911;28;20272;-63
2022/08/19 05:09:30;;;;;;;;;;;27.00;58.80;;;;;;5109712;28;20339;-63
2022/08/19 05:11:55;;;;;;;;;;;27.00;58.90;;;;;;5113210;28;19955;-63
2022/08/19 05:14:21;;;;;;;;;;;27.00;58.90;;;;;;5092527;28;20420;-63
2022/08/19 05:16:47;;;;;;;;;;;27.00;58.90;;;;;;5091234;28;20512;-63
2022/08/19 05:24:41;;;;;;;;;;;27.10;59.00;;;;;;5089365;28;20011;-63
2022/08/19 05:27:06;;;;;;;;;;;27.10;58.90;;;;;;5090610;28;19995;-63
2022/08/19 05:29:32;;;;;;;;;;;27.00;59.10;;;;;;5088647;28;19930;-63
2022/08/19 05:31:57;;;;;;;;;;;27.00;59.20;;;;;;5089815;28;19919;-63
2022/08/19 05:34:25;;;;;;;;;;;27.00;59.20;;;;;;5090136;28;19912;-63
2022/08/19 05:36:56;;;;;;;;;;;27.00;59.30;;;;;;5090377;28;19919;-63
2022/08/19 05:39:22;;;;;;;;;;;27.00;59.30;;;;;;5072931;28;19923;-63
2022/08/19 05:41:52;;;;;;;;;;;27.00;59.40;;;;;;5089682;28;19912;-63
2022/08/19 05:44:17;;;;;;;;;;;27.00;59.20;;;;;;5057118;28;19918;-63
2022/08/19 05:46:43;;;;;;;;;;;27.00;59.30;;;;;;5068576;28;20380;-63
2022/08/19 05:49:09;;;;;;;;;;;27.00;59.30;;;;;;5090790;28;19913;-63
2022/08/19 05:51:35;;;;;;;;;;;27.00;59.40;;;;;;5089599;28;20360;-63
2022/08/19 05:54:01;;;;;;;;;;;26.90;59.60;;;;;;5087179;28;19923;-63
2022/08/19 05:56:26;;;;;;;;;;;26.80;59.70;;;;;;5089374;28;19912;-63
2022/08/19 05:58:53;;;;;;;;;;;26.80;59.70;;;;;;5090682;28;20388;-63
2022/08/19 06:01:19;;;;;;;;;;;26.80;59.70;;;;;;5089230;28;19912;-63
2022/08/19 06:03:45;;;;;;;;;;;26.70;59.80;;;;;;5090569;28;19927;-64
2022/08/19 06:06:11;;;;;;;;;;;26.70;59.80;;;;;;5087307;28;19916;-63
2022/08/19 06:08:37;;;;;;;;;;;26.60;60.10;;;;;;5091517;28;20280;-63
2022/08/19 06:11:17;;;;;;;;;;;26.50;60.10;;;;;;5069374;28;19913;-63
2022/08/19 06:13:42;;;;;;;;;;;26.60;60.00;;;;;;5076627;28;20010;-63
2022/08/19 06:16:08;;;;;;;;;;;26.60;60.20;;;;;;5091333;28;20049;-63
2022/08/19 06:18:34;;;;;;;;;;;26.50;60.10;;;;;;5083660;28;19917;-63
2022/08/19 06:21:04;;;;;;;;;;;26.50;60.10;;;;;;5060358;28;19920;-63
2022/08/19 06:23:30;;;;;;;;;;;26.60;60.10;;;;;;5096591;28;19916;-63
2022/08/19 06:25:56;;;;;;;;;;;26.70;59.80;;;;;;5072021;28;19912;-63
2022/08/19 06:28:22;;;;;;;;;;;26.80;59.40;;;;;;5090422;28;20288;-63
2022/08/19 06:30:48;;;;;;;;;;;26.80;59.40;;;;;;5087443;28;20441;-63
2022/08/19 06:33:13;;;;;;;;;;;26.80;59.20;;;;;;5088350;28;19958;-63
2022/08/19 06:35:39;;;;;;;;;;;26.90;59.20;;;;;;5062421;28;19917;-63
2022/08/19 06:38:05;;;;;;;;;;;26.80;59.40;;;;;;5061902;28;19920;-63
2022/08/19 06:40:30;;;;;;;;;;;26.70;59.50;;;;;;5077860;28;20452;-63
2022/08/19 06:42:57;;;;;;;;;;;26.70;59.60;;;;;;5088582;28;20014;-63
2022/08/19 06:45:22;;;;;;;;;;;26.70;59.60;;;;;;5088696;28;20016;-63
2022/08/19 06:47:48;;;;;;;;;;;26.60;59.70;;;;;;5086100;28;19963;-63
2022/08/19 06:50:14;;;;;;;;;;;26.60;59.70;;;;;;5089231;28;20342;-63
2022/08/19 06:52:39;;;;;;;;;;;26.60;59.60;;;;;;5087366;28;19924;-63
2022/08/19 06:55:05;;;;;;;;;;;26.70;59.40;;;;;;5088304;28;19927;-64
2022/08/19 06:57:32;;;;;;;;;;;26.70;59.30;;;;;;5088424;28;19916;-63
2022/08/19 06:59:59;;;;;;;;;;;26.70;59.30;;;;;;5089081;28;19931;-63
2022/08/19 07:02:26;;;;;;;;;;;26.50;59.70;;;;;;5087696;28;19974;-63
2022/08/19 07:04:52;;;;;;;;;;;26.50;59.80;;;;;;5087823;28;19923;-64
2022/08/19 07:07:17;;;;;;;;;;;26.50;60.10;;;;;;5091523;28;19916;-63
2022/08/19 07:09:43;;;;;;;;;;;26.50;60.10;;;;;;5070070;28;19912;-63
2022/08/19 07:12:09;;;;;;;;;;;26.50;60.00;;;;;;5095056;28;20292;-63
2022/08/19 07:14:37;;;;;;;;;;;26.40;60.00;;;;;;5091955;28;19972;-63
2022/08/19 07:17:04;;;;;;;;;;;26.50;60.10;;;;;;5110363;28;19912;-63
2022/08/19 07:19:29;;;;;;;;;;;26.50;60.10;;;;;;5103827;28;20070;-63
2022/08/19 07:21:55;;;;;;;;;;;26.50;59.90;;;;;;5105550;28;20006;-63
2022/08/19 07:24:23;;;;;;;;;;;26.60;59.70;;;;;;5092452;28;19920;-63
2022/08/19 07:26:48;;;;;;;;;;;26.70;59.50;;;;;;5108105;28;19915;-63
2022/08/19 07:29:15;;;;;;;;;;;26.70;59.30;;;;;;5113343;28;19918;-63
2022/08/19 07:31:40;;;;;;;;;;;26.70;59.30;;;;;;5113508;28;20442;-63
2022/08/19 07:34:06;;;;;;;;;;;26.80;59.40;;;;;;5111919;28;19995;-63
2022/08/19 07:36:32;;;;;;;;;;;26.70;59.30;;;;;;5102050;28;19961;-63
2022/08/19 07:38:58;;;;;;;;;;;26.70;59.40;;;;;;5105345;28;19907;-63
2022/08/19 07:41:24;;;;;;;;;;;26.70;59.50;;;;;;5110833;28;19912;-63
2022/08/19 07:43:49;;;;;;;;;;;26.70;59.50;;;;;;5111198;28;20302;-63
2022/08/19 07:46:16;;;;;;;;;;;26.70;59.30;;;;;;5113947;28;19911;-63
2022/08/19 07:48:42;;;;;;;;;;;26.70;59.30;;;;;;5114888;28;19908;-63
2022/08/19 07:51:08;;;;;;;;;;;26.70;59.40;;;;;;5112983;28;19918;-63
2022/08/19 07:53:33;;;;;;;;;;;26.70;59.50;;;;;;5107224;28;20015;-63
2022/08/19 07:56:03;;;;;;;;;;;26.70;59.50;;;;;;5091377;28;20008;-63
2022/08/19 07:58:33;;;;;;;;;;;26.70;59.50;;;;;;5110377;28;19935;-63
2022/08/19 08:00:58;;;;;;;;;;;26.70;59.50;;;;;;5112945;28;19912;-63
2022/08/19 08:09:10;;;;;;;;;;;26.70;59.30;;;;;;5110525;28;19930;-63
2022/08/19 08:09:12;;;;;;;;;;;26.60;59.60;;;;;;5107515;28;19942;-63
2022/08/19 08:11:38;;;;;;;;;;;26.70;59.50;;;;;;5107068;28;19935;-63
2022/08/19 08:14:04;;;;;;;;;;;26.70;59.60;;;;;;5086210;28;19924;-64
2022/08/19 08:16:31;;;;;;;;;;;26.70;59.40;;;;;;5088926;28;19920;-63
2022/08/19 08:18:56;;;;;;;;;;;26.70;59.30;;;;;;5071457;28;19962;-63
2022/08/19 08:21:22;;;;;;;;;;;26.70;59.30;;;;;;5090719;28;19967;-63
2022/08/19 08:23:47;;;;;;;;;;;26.70;59.30;;;;;;5090017;28;20284;-63
2022/08/19 08:26:14;;;;;;;;;;;26.70;59.20;;;;;;5089954;28;19919;-63
2022/08/19 08:28:40;;;;;;;;;;;26.70;59.00;;;;;;5085229;28;19947;-63
2022/08/19 08:31:05;;;;;;;;;;;26.80;59.00;;;;;;5084387;28;19959;-64
2022/08/19 08:33:31;;;;;;;;;;;26.80;58.90;;;;;;5090343;28;19958;-64
2022/08/19 08:35:56;;;;;;;;;;;26.70;59.00;;;;;;5089617;28;19923;-64
2022/08/19 08:38:21;;;;;;;;;;;26.70;59.20;;;;;;5091162;28;19945;-64
2022/08/19 08:40:53;;;;;;;;;;;26.70;59.30;;;;;;5073584;28;19924;-64
2022/08/19 08:43:22;;;;;;;;;;;26.70;59.30;;;;;;5074738;28;20449;-63
2022/08/19 08:46:04;;;;;;;;;;;26.70;59.20;;;;;;5085126;28;19966;-63
2022/08/19 08:48:33;;;;;;;;;;;26.70;59.20;;;;;;5071495;28;19965;-63
2022/08/19 08:50:58;;;;;;;;;;;26.70;59.30;;;;;;5074545;28;19912;-63
2022/08/19 08:53:24;;;;;;;;;;;26.70;59.10;;;;;;5091150;28;19916;-63
2022/08/19 08:55:49;;;;;;;;;;;26.70;59.10;;;;;;5089416;28;20006;-63
2022/08/19 08:58:20;;;;;;;;;;;26.80;59.00;;;;;;5090367;28;20437;-63
2022/08/19 09:00:46;;;;;;;;;;;26.80;59.00;;;;;;5087015;28;20348;-63
2022/08/19 09:03:15;;;;;;;;;;;26.80;58.80;;;;;;5087370;28;20892;-63
2022/08/19 09:05:52;;;;;;;;;;;26.80;59.00;;;;;;5086522;28;19955;-63
2022/08/19 09:08:37;;;;;;;;;;;26.80;59.00;;;;;;5086773;28;19916;-63
2022/08/19 09:11:04;;;;;;;;;;;26.80;59.00;;;;;;5087929;28;19916;-63
2022/08/19 09:13:36;;;;;;;;;;;26.70;59.20;;;;;;5096909;28;19931;-63
2022/08/19 09:16:03;;;;;;;;;;;26.60;59.30;;;;;;5109921;28;19959;-63
2022/08/19 09:18:38;;;;;;;;;;;26.60;59.60;;;;;;5089464;28;20351;-63
2022/08/19 09:21:04;;;;;;;;;;;26.60;59.60;;;;;;5107385;28;19911;-63
2022/08/19 09:23:29;;;;;;;;;;;26.60;59.70;;;;;;5108064;28;19919;-63
2022/08/19 09:25:54;;;;;;;;;;;26.60;59.80;;;;;;5109208;28;19912;-63
2022/08/19 09:28:20;;;;;;;;;;;26.60;59.90;;;;;;5103423;28;19920;-63
2022/08/19 09:30:45;;;;;;;;;;;26.50;60.00;;;;;;5105105;27;19916;-63
2022/08/19 09:33:11;;;;;;;;;;;26.40;60.10;;;;;;5101839;28;19957;-63
2022/08/19 09:35:37;;;;;;;;;;;26.40;60.10;;;;;;5104757;28;20279;-63
2022/08/19 09:38:02;;;;;;;;;;;26.50;60.10;;;;;;5103416;28;20010;-63
2022/08/19 09:40:28;;;;;;;;;;;26.50;60.10;;;;;;5101585;28;20296;-63
2022/08/19 09:42:54;;;;;;;;;;;26.50;60.10;;;;;;5101614;28;20018;-63
2022/08/19 09:45:23;;;;;;;;;;;26.50;60.10;;;;;;5105692;28;19915;-63
2022/08/19 09:47:52;;;;;;;;;;;26.60;60.20;;;;;;5108158;28;19912;-63
2022/08/19 09:50:18;;;;;;;;;;;26.50;60.00;;;;;;5108734;28;19965;-63
2022/08/19 09:52:43;;;;;;;;;;;26.60;60.00;;;;;;5111871;28;19915;-64
2022/08/19 09:55:09;;;;;;;;;;;26.60;59.90;;;;;;5101133;28;19922;-63
2022/08/19 09:57:35;;;;;;;;;;;26.60;59.80;;;;;;5090411;28;20371;-64
2022/08/19 10:00:00;;;;;;;;;;;26.70;59.80;;;;;;5109478;28;19912;-64
2022/08/19 10:02:26;;;;;;;;;;;26.60;59.90;;;;;;5092325;28;19936;-63
2022/08/19 10:07:35;;;;;;;;;;;26.50;60.10;;;;;;5109151;28;20389;-63
2022/08/19 10:10:01;;;;;;;;;;;26.50;60.10;;;;;;5106383;28;19912;-63
2022/08/19 10:12:27;;;;;;;;;;;26.50;60.10;;;;;;5110704;28;19911;-63
2022/08/19 10:14:54;;;;;;;;;;;26.40;60.50;;;;;;5110285;28;19969;-66
2022/08/19 10:17:19;;;;;;;;;;;26.40;60.50;;;;;;5094154;28;20075;-65
2022/08/19 10:19:45;;;;;;;;;;;26.40;61.10;;;;;;5109694;28;20108;-62
2022/08/19 10:22:13;;;;;;;;;;;26.30;61.00;;;;;;5110101;28;19916;-62
2022/08/19 10:24:38;;;;;;;;;;;26.40;61.00;;;;;;5106527;28;19947;-63
2022/08/19 10:27:05;;;;;;;;;;;26.40;60.90;;;;;;5105742;28;19959;-63
2022/08/19 10:29:31;;;;;;;;;;;26.40;60.90;;;;;;5108757;28;20399;-62
2022/08/19 10:31:58;;;;;;;;;;;26.40;61.10;;;;;;5092238;28;19955;-63
2022/08/19 10:34:23;;;;;;;;;;;26.30;61.10;;;;;;5104372;28;19912;-63
2022/08/19 10:36:49;;;;;;;;;;;26.40;61.20;;;;;;5085289;28;19935;-62
2022/08/19 10:39:15;;;;;;;;;;;26.40;61.20;;;;;;5097751;28;19912;-62
2022/08/19 10:41:42;;;;;;;;;;;26.40;61.10;;;;;;5099813;28;19920;-63
2022/08/19 10:44:08;;;;;;;;;;;26.50;61.00;;;;;;5104727;28;19941;-63
2022/08/19 10:46:35;;;;;;;;;;;26.50;61.70;;;;;;5093015;28;20002;-63
2022/08/19 10:49:01;;;;;;;;;;;26.50;60.90;;;;;;5112303;28;19969;-63
2022/08/19 10:54:11;;;;;;;;;;;26.50;61.10;;;;;;5098027;28;19985;-62
2022/08/19 10:56:51;;;;;;;;;;;26.50;61.10;;;;;;5112343;27;20014;-63
2022/08/19 10:59:18;;;;;;;;;;;26.50;61.80;;;;;;5108998;28;19912;-66
2022/08/19 11:01:44;;;;;;;;;;;26.50;61.30;;;;;;5065969;28;19964;-63
2022/08/19 11:04:13;;;;;;;;;;;26.50;61.20;;;;;;5113777;28;19922;-63
2022/08/19 11:06:43;;;;;;;;;;;26.50;61.20;;;;;;5109456;28;19915;-63
2022/08/19 11:09:08;;;;;;;;;;;26.50;61.30;;;;;;5073624;28;19988;-62
2022/08/19 11:11:39;;;;;;;;;;;26.40;61.60;;;;;;5105133;27;19912;-64
2022/08/19 11:14:04;;;;;;;;;;;26.30;61.90;;;;;;5092183;28;19943;-64
2022/08/19 11:16:31;;;;;;;;;;;26.30;62.10;;;;;;5106689;28;19919;-65
2022/08/19 11:18:58;;;;;;;;;;;26.40;62.00;;;;;;5062771;28;19915;-62
2022/08/19 11:21:27;;;;;;;;;;;26.30;61.90;;;;;;5090919;28;19920;-63
2022/08/19 11:23:54;;;;;;;;;;;26.30;62.30;;;;;;5111946;28;19927;-63
2022/08/19 11:26:19;;;;;;;;;;;26.30;62.10;;;;;;5113966;28;19911;-63
2022/08/19 11:28:45;;;;;;;;;;;26.50;61.90;;;;;;5112145;28;20418;-63
2022/08/19 11:31:11;;;;;;;;;;;26.50;61.70;;;;;;5101263;28;19954;-63
2022/08/19 11:33:37;;;;;;;;;;;26.50;61.80;;;;;;5105938;28;19927;-63
2022/08/19 11:36:02;;;;;;;;;;;26.40;62.00;;;;;;5105622;28;19920;-63
2022/08/19 11:38:28;;;;;;;;;;;26.40;62.20;;;;;;5108299;28;19916;-63
2022/08/19 11:40:55;;;;;;;;;;;26.30;62.10;;;;;;5110811;28;19980;-63
2022/08/19 11:43:20;;;;;;;;;;;26.40;62.00;;;;;;5072151;28;20332;-63
2022/08/19 11:45:48;;;;;;;;;;;26.40;61.90;;;;;;5111677;28;20017;-63
2022/08/19 11:48:13;;;;;;;;;;;26.40;62.00;;;;;;5107127;28;19916;-64
2022/08/19 11:50:42;;;;;;;;;;;26.40;62.00;;;;;;5107404;28;19915;-64
2022/08/19 11:53:07;;;;;;;;;;;26.40;61.50;;;;;;5109801;28;19919;-64
2022/08/19 11:55:36;;;;;;;;;;;26.50;61.60;;;;;;5102556;28;19916;-63
2022/08/19 11:58:01;;;;;;;;;;;26.40;61.50;;;;;;5102503;28;19916;-63
2022/08/19 12:00:26;;;;;;;;;;;26.50;61.50;;;;;;5108048;28;19919;-63
2022/08/19 12:02:52;;;;;;;;;;;26.50;61.40;;;;;;5110744;28;19923;-63
2022/08/19 12:05:17;;;;;;;;;;;26.60;61.00;;;;;;5106032;28;19912;-63
2022/08/19 12:07:43;;;;;;;;;;;26.70;60.90;;;;;;5091147;28;19980;-63
2022/08/19 12:10:09;;;;;;;;;;;26.80;60.60;;;;;;5106146;28;19920;-64
2022/08/19 12:12:34;;;;;;;;;;;26.80;60.30;;;;;;5106103;28;20363;-63
2022/08/19 12:15:00;;;;;;;;;;;26.80;60.30;;;;;;5108278;28;19946;-63
2022/08/19 12:17:25;;;;;;;;;;;26.80;60.40;;;;;;5086690;28;19941;-63
2022/08/19 12:19:51;;;;;;;;;;;26.80;60.60;;;;;;5091209;28;20441;-63
2022/08/19 12:22:16;;;;;;;;;;;26.80;60.30;;;;;;5093496;28;19994;-63
2022/08/19 12:24:42;;;;;;;;;;;26.80;60.40;;;;;;5104629;28;19916;-63
2022/08/19 12:27:07;;;;;;;;;;;26.80;60.40;;;;;;5113547;28;20379;-63
2022/08/19 12:29:33;;;;;;;;;;;26.80;60.30;;;;;;5106396;28;19955;-64
2022/08/19 12:32:02;;;;;;;;;;;26.70;60.30;;;;;;5111079;28;19915;-63
2022/08/19 12:34:29;;;;;;;;;;;26.80;60.30;;;;;;5090618;28;19919;-63
2022/08/19 12:36:56;;;;;;;;;;;26.80;60.30;;;;;;5109447;28;19969;-64
2022/08/19 12:39:21;;;;;;;;;;;26.80;60.30;;;;;;5108604;28;20382;-64
2022/08/19 12:41:48;;;;;;;;;;;26.90;61.20;;;;;;5109019;28;19915;-63
2022/08/19 12:44:13;;;;;;;;;;;26.90;60.40;;;;;;5088202;28;20396;-63
2022/08/19 12:46:39;;;;;;;;;;;26.90;60.40;;;;;;5105402;28;19991;-64
2022/08/19 12:49:04;;;;;;;;;;;26.80;60.40;;;;;;5105739;28;19911;-64
2022/08/19 12:51:31;;;;;;;;;;;26.90;60.40;;;;;;5106494;28;19965;-63
2022/08/19 12:53:56;;;;;;;;;;;26.90;60.40;;;;;;5107006;28;20399;-63
2022/08/19 12:56:22;;;;;;;;;;;27.00;60.20;;;;;;5107077;28;19983;-63
2022/08/19 12:58:47;;;;;;;;;;;27.00;60.30;;;;;;5107615;28;19912;-63
2022/08/19 13:01:14;;;;;;;;;;;27.00;60.00;;;;;;5090141;28;19973;-63
2022/08/19 13:03:40;;;;;;;;;;;27.10;60.00;;;;;;5105408;28;19923;-63
2022/08/19 13:06:05;;;;;;;;;;;27.00;59.80;;;;;;5106237;28;19915;-63
2022/08/19 13:08:31;;;;;;;;;;;27.00;59.90;;;;;;5103918;28;19936;-63
2022/08/19 13:10:58;;;;;;;;;;;27.10;60.00;;;;;;5083783;28;19919;-63
2022/08/19 13:13:25;;;;;;;;;;;27.00;59.90;;;;;;5099251;28;19928;-64
2022/08/19 13:15:51;;;;;;;;;;;27.00;59.90;;;;;;5088236;28;19912;-63
2022/08/19 13:18:16;;;;;;;;;;;27.10;59.90;;;;;;5086938;28;19923;-64
2022/08/19 13:20:42;;;;;;;;;;;27.00;59.80;;;;;;5089411;28;19912;-64
2022/08/19 13:23:07;;;;;;;;;;;27.10;59.90;;;;;;5068929;28;19916;-64
2022/08/19 13:25:33;;;;;;;;;;;27.10;59.90;;;;;;5080895;28;20003;-64
2022/08/19 13:27:59;;;;;;;;;;;27.10;59.70;;;;;;5057407;28;20006;-64
2022/08/19 13:33:12;;;;;;;;;;;27.10;59.70;;;;;;5069984;28;19919;-64
2022/08/19 13:35:42;;;;;;;;;;;27.00;59.70;;;;;;5085625;28;19994;-64
2022/08/19 13:38:07;;;;;;;;;;;27.00;59.80;;;;;;5073733;28;19923;-64
2022/08/19 13:40:33;;;;;;;;;;;27.00;59.80;;;;;;5082035;28;19920;-64
2022/08/19 13:42:59;;;;;;;;;;;27.00;59.80;;;;;;5067472;28;20300;-64
2022/08/19 13:45:24;;;;;;;;;;;27.00;59.90;;;;;;5069118;28;20037;-64
2022/08/19 13:47:50;;;;;;;;;;;27.00;59.80;;;;;;5066349;28;19931;-63
2022/08/19 13:50:16;;;;;;;;;;;27.00;59.80;;;;;;5085873;28;19916;-64
2022/08/19 13:52:42;;;;;;;;;;;27.10;59.70;;;;;;5084772;28;20291;-64
2022/08/19 13:55:08;;;;;;;;;;;27.10;59.60;;;;;;5066013;28;19920;-64
2022/08/19 13:57:33;;;;;;;;;;;27.10;59.70;;;;;;5084062;28;20034;-64
2022/08/19 13:59:59;;;;;;;;;;;27.10;59.70;;;;;;5049512;28;19919;-63
2022/08/19 14:02:24;;;;;;;;;;;27.00;59.80;;;;;;5086006;28;20463;-63
2022/08/19 14:04:50;;;;;;;;;;;27.00;59.70;;;;;;5065186;28;19916;-64
2022/08/19 14:07:15;;;;;;;;;;;27.00;59.70;;;;;;5065237;28;19916;-64
2022/08/19 14:09:41;;;;;;;;;;;27.10;59.60;;;;;;5081872;28;19969;-64
2022/08/19 14:12:06;;;;;;;;;;;27.10;59.50;;;;;;5082382;28;19917;-63
2022/08/19 14:14:32;;;;;;;;;;;27.10;59.80;;;;;;5081683;28;19924;-64
2022/08/19 14:16:57;;;;;;;;;;;27.10;59.40;;;;;;5089117;28;19981;-64
2022/08/19 14:19:23;;;;;;;;;;;27.20;59.40;;;;;;5088570;28;19916;-64
2022/08/19 14:21:48;;;;;;;;;;;27.10;59.30;;;;;;5086952;28;20021;-64
2022/08/19 14:24:14;;;;;;;;;;;27.10;59.40;;;;;;5088520;28;19920;-63
2022/08/19 14:26:39;;;;;;;;;;;27.10;59.40;;;;;;5089406;28;20010;-64
2022/08/19 14:29:05;;;;;;;;;;;27.10;59.40;;;;;;5083974;28;19916;-64
2022/08/19 14:31:30;;;;;;;;;;;27.10;59.30;;;;;;5087783;28;19985;-63
2022/08/19 14:33:55;;;;;;;;;;;27.10;59.40;;;;;;5086619;28;19934;-63